Time;durP1;ratioP1;P1;durP2;ratioP2;P2;SDS_P1;SDS_P2;PMS_P1;PMS_P2;Temp;Humidity;BMP_temperature;BMP_pressure;BME280_temperature;BME280_humidity;BME280_pressure;Samples;Min_cycle;Max_cycle;Signal;HPM_P1;HPM_P2
2021/01/23 00:00:47;;;;;;;;;11.00;10.75;;;;;;;;4981117;28;11578;-83
2021/01/23 00:03:16;;;;;;;;;9.00;6.00;;;;;;;;4981964;28;11617;-84
2021/01/23 00:05:43;;;;;;;;;8.75;8.75;;;;;;;;4984506;28;11715;-85
2021/01/23 00:08:10;;;;;;;;;13.00;9.75;;;;;;;;4990173;28;11596;-83
2021/01/23 00:10:37;;;;;;;;;9.00;5.00;;;;;;;;4987698;28;11593;-86
2021/01/23 00:13:05;;;;;;;;;6.00;6.00;;;;;;;;4984920;28;11577;-83
2021/01/23 00:15:32;;;;;;;;;9.75;9.75;;;;;;;;4992928;28;11591;-83
2021/01/23 00:17:59;;;;;;;;;12.00;5.25;;;;;;;;5004477;28;11647;-83
2021/01/23 00:23:07;;;;;;;;;8.25;8.25;;;;;;;;4971016;28;11704;-83
2021/01/23 00:25:35;;;;;;;;;9.50;7.50;;;;;;;;4987353;28;11605;-84
2021/01/23 00:28:02;;;;;;;;;8.25;5.50;;;;;;;;4999252;28;11583;-83
2021/01/23 00:30:30;;;;;;;;;8.25;5.50;;;;;;;;4980512;28;11577;-83
2021/01/23 00:32:56;;;;;;;;;8.00;5.50;;;;;;;;4981346;28;11601;-82
2021/01/23 00:35:23;;;;;;;;;7.00;6.00;;;;;;;;5002959;28;11620;-83
2021/01/23 00:37:50;;;;;;;;;7.25;5.00;;;;;;;;5003086;28;11617;-83
2021/01/23 00:40:18;;;;;;;;;8.25;6.00;;;;;;;;4995125;28;12439;-83
2021/01/23 00:42:45;;;;;;;;;8.00;5.75;;;;;;;;4984800;28;11583;-82
2021/01/23 00:45:13;;;;;;;;;5.75;5.75;;;;;;;;5002434;28;11591;-83
2021/01/23 00:47:40;;;;;;;;;5.25;5.25;;;;;;;;5002405;28;11593;-84
2021/01/23 00:50:08;;;;;;;;;6.00;5.00;;;;;;;;5002278;28;11613;-84
2021/01/23 00:52:36;;;;;;;;;6.00;5.00;;;;;;;;5003315;28;11590;-83
2021/01/23 00:55:03;;;;;;;;;6.00;6.00;;;;;;;;5002880;28;11598;-83
2021/01/23 00:57:31;;;;;;;;;5.25;4.75;;;;;;;;5002703;28;11591;-84
2021/01/23 00:59:58;;;;;;;;;2.00;2.00;;;;;;;;5002900;28;11668;-83
2021/01/23 01:02:25;;;;;;;;;6.00;6.00;;;;;;;;5001669;28;11539;-84
2021/01/23 01:04:52;;;;;;;;;4.75;4.75;;;;;;;;5003402;28;11579;-83
2021/01/23 01:07:19;;;;;;;;;4.00;4.00;;;;;;;;4997878;28;11598;-83
2021/01/23 01:09:46;;;;;;;;;2.50;2.50;;;;;;;;5009189;28;11574;-82
2021/01/23 01:12:13;;;;;;;;;4.00;4.00;;;;;;;;5001601;28;11619;-82
2021/01/23 01:14:39;;;;;;;;;4.00;4.00;;;;;;;;4994841;28;11560;-82
2021/01/23 01:17:06;;;;;;;;;4.25;4.25;;;;;;;;4985040;28;11650;-82
2021/01/23 01:19:33;;;;;;;;;4.00;4.00;;;;;;;;5002278;28;11586;-79
2021/01/23 01:22:01;;;;;;;;;6.25;5.00;;;;;;;;5004005;28;11589;-79
2021/01/23 01:24:28;;;;;;;;;4.50;4.50;;;;;;;;5001852;28;12317;-80
2021/01/23 01:26:54;;;;;;;;;4.25;4.25;;;;;;;;5002958;28;11585;-81
2021/01/23 01:29:21;;;;;;;;;4.00;4.00;;;;;;;;5001757;28;11607;-80
2021/01/23 01:31:48;;;;;;;;;7.75;5.50;;;;;;;;5000714;28;11534;-79
2021/01/23 01:34:15;;;;;;;;;4.00;4.00;;;;;;;;5001000;28;11580;-81
2021/01/23 01:36:42;;;;;;;;;4.75;4.75;;;;;;;;5002756;28;11622;-81
2021/01/23 01:39:10;;;;;;;;;10.00;5.50;;;;;;;;5004068;28;11687;-82
2021/01/23 01:41:37;;;;;;;;;2.50;2.50;;;;;;;;5001665;28;11602;-84
2021/01/23 01:44:04;;;;;;;;;4.00;4.00;;;;;;;;5000621;28;11589;-83
2021/01/23 01:46:31;;;;;;;;;2.50;2.50;;;;;;;;5001248;28;11705;-83
2021/01/23 01:49:01;;;;;;;;;8.00;8.00;;;;;;;;5017026;28;11721;-82
2021/01/23 01:51:27;;;;;;;;;5.25;5.25;;;;;;;;5002931;28;11607;-84
2021/01/23 01:53:55;;;;;;;;;1.50;1.50;;;;;;;;4986393;28;12399;-81
2021/01/23 01:56:22;;;;;;;;;2.00;2.00;;;;;;;;5004578;28;12345;-83
2021/01/23 01:58:49;;;;;;;;;0.00;0.00;;;;;;;;5005539;28;11602;-82
2021/01/23 02:01:16;;;;;;;;;3.50;3.50;;;;;;;;5009941;28;11537;-85
2021/01/23 02:03:52;;;;;;;;;4.00;4.00;;;;;;;;4987777;28;11691;-84
2021/01/23 02:06:34;;;;;;;;;4.00;4.00;;;;;;;;5003713;28;11617;-83
2021/01/23 02:09:06;;;;;;;;;5.50;4.00;;;;;;;;5008518;28;11604;-85
2021/01/23 02:11:42;;;;;;;;;2.00;2.00;;;;;;;;5005797;28;11618;-85
2021/01/23 02:14:18;;;;;;;;;4.00;4.00;;;;;;;;5005458;28;11604;-84
2021/01/23 02:16:48;;;;;;;;;3.50;3.50;;;;;;;;5004856;28;11624;-85
2021/01/23 02:19:39;;;;;;;;;5.00;5.00;;;;;;;;4989606;28;12609;-86
2021/01/23 02:22:17;;;;;;;;;4.25;4.25;;;;;;;;5006472;28;11565;-86
2021/01/23 02:24:46;;;;;;;;;2.00;2.00;;;;;;;;4972712;28;11589;-85
2021/01/23 02:27:27;;;;;;;;;6.75;4.50;;;;;;;;4989025;28;11671;-86
2021/01/23 02:30:08;;;;;;;;;4.00;4.00;;;;;;;;4987291;28;11578;-84
2021/01/23 02:32:39;;;;;;;;;2.50;2.50;;;;;;;;4989894;28;11621;-85
2021/01/23 02:35:09;;;;;;;;;5.00;5.00;;;;;;;;5005749;28;11683;-88
2021/01/23 02:37:37;;;;;;;;;4.50;4.50;;;;;;;;4983990;28;11592;-86
2021/01/23 02:40:05;;;;;;;;;4.00;4.00;;;;;;;;5007871;28;11570;-90
2021/01/23 02:42:32;;;;;;;;;4.00;4.00;;;;;;;;5000751;28;11585;-90
2021/01/23 02:44:59;;;;;;;;;4.00;1.50;;;;;;;;4990266;28;11615;-87
2021/01/23 02:47:26;;;;;;;;;1.75;1.75;;;;;;;;5003736;28;11616;-85
2021/01/23 02:49:54;;;;;;;;;2.00;2.00;;;;;;;;5007065;28;11603;-87
2021/01/23 02:52:25;;;;;;;;;2.00;2.00;;;;;;;;5005389;28;11652;-86
2021/01/23 02:54:56;;;;;;;;;6.00;4.50;;;;;;;;5006154;28;11663;-85
2021/01/23 02:57:23;;;;;;;;;3.50;1.00;;;;;;;;5007718;28;11605;-87
2021/01/23 02:59:54;;;;;;;;;3.00;3.00;;;;;;;;5005250;28;11569;-85
2021/01/23 03:02:23;;;;;;;;;0.25;0.25;;;;;;;;5003860;28;11534;-85
2021/01/23 03:04:51;;;;;;;;;2.50;2.00;;;;;;;;4997702;28;12286;-85
2021/01/23 03:07:19;;;;;;;;;2.00;2.00;;;;;;;;5004885;28;11594;-84
2021/01/23 03:09:46;;;;;;;;;2.00;2.00;;;;;;;;4998807;28;11702;-83
2021/01/23 03:12:13;;;;;;;;;2.00;2.00;;;;;;;;5004781;28;11577;-84
2021/01/23 03:14:40;;;;;;;;;2.00;2.00;;;;;;;;5004052;28;11574;-85
2021/01/23 03:17:07;;;;;;;;;5.00;3.00;;;;;;;;5004814;28;11611;-85
2021/01/23 03:19:34;;;;;;;;;2.50;2.00;;;;;;;;5005842;28;11616;-84
2021/01/23 03:22:01;;;;;;;;;4.50;4.00;;;;;;;;4987636;28;11608;-84
2021/01/23 03:24:29;;;;;;;;;4.25;2.00;;;;;;;;5004610;28;11718;-85
2021/01/23 03:26:56;;;;;;;;;4.00;4.00;;;;;;;;4986244;28;11591;-86
2021/01/23 03:29:23;;;;;;;;;4.00;4.00;;;;;;;;4988555;28;11588;-85
2021/01/23 03:31:50;;;;;;;;;4.75;3.50;;;;;;;;4992187;28;11510;-84
2021/01/23 03:34:17;;;;;;;;;2.00;2.00;;;;;;;;5005225;28;11655;-84
2021/01/23 03:36:44;;;;;;;;;4.25;4.25;;;;;;;;5005357;28;12359;-84
2021/01/23 03:39:11;;;;;;;;;4.00;4.00;;;;;;;;5002735;28;11710;-84
2021/01/23 03:41:39;;;;;;;;;4.75;2.00;;;;;;;;5005786;28;11690;-83
2021/01/23 03:44:06;;;;;;;;;2.00;2.00;;;;;;;;5000413;28;11623;-83
2021/01/23 03:46:33;;;;;;;;;2.00;2.00;;;;;;;;5006388;28;11596;-87
2021/01/23 03:49:01;;;;;;;;;4.00;4.00;;;;;;;;4999494;28;11677;-85
2021/01/23 03:51:28;;;;;;;;;3.00;3.00;;;;;;;;4985080;28;11683;-84
2021/01/23 03:53:55;;;;;;;;;2.00;2.00;;;;;;;;4982430;28;11590;-85
2021/01/23 03:56:21;;;;;;;;;4.00;4.00;;;;;;;;4987854;28;11602;-85
2021/01/23 03:58:49;;;;;;;;;2.50;2.50;;;;;;;;4982015;28;11591;-85
2021/01/23 04:01:16;;;;;;;;;2.00;2.00;;;;;;;;4976767;28;11617;-85
2021/01/23 04:03:43;;;;;;;;;3.00;1.00;;;;;;;;5002612;28;11622;-83
2021/01/23 04:06:10;;;;;;;;;2.50;2.50;;;;;;;;5003197;28;11603;-84
2021/01/23 04:08:37;;;;;;;;;2.00;2.00;;;;;;;;4987556;28;11744;-86
2021/01/23 04:11:04;;;;;;;;;3.50;3.50;;;;;;;;4998297;28;11630;-83
2021/01/23 04:13:31;;;;;;;;;5.00;3.50;;;;;;;;4985600;28;11659;-85
2021/01/23 04:15:59;;;;;;;;;5.00;5.00;;;;;;;;4997893;28;11594;-86
2021/01/23 04:18:26;;;;;;;;;2.00;2.00;;;;;;;;5002896;28;11616;-86
2021/01/23 04:20:53;;;;;;;;;5.50;4.00;;;;;;;;4979428;28;11608;-85
2021/01/23 04:23:20;;;;;;;;;3.75;3.75;;;;;;;;4998940;28;12186;-85
2021/01/23 04:25:47;;;;;;;;;4.00;2.00;;;;;;;;5005440;28;11624;-84
2021/01/23 04:28:15;;;;;;;;;4.00;4.00;;;;;;;;4986343;28;11594;-88
2021/01/23 04:33:25;;;;;;;;;7.25;5.50;;;;;;;;4952587;28;11731;-87
2021/01/23 04:35:51;;;;;;;;;5.50;5.50;;;;;;;;4979789;28;11600;-87
2021/01/23 04:38:18;;;;;;;;;7.00;7.00;;;;;;;;5002416;28;11729;-87
2021/01/23 04:40:45;;;;;;;;;4.00;4.00;;;;;;;;5001327;28;12329;-87
2021/01/23 04:43:12;;;;;;;;;4.00;4.00;;;;;;;;5005274;28;11586;-87
2021/01/23 04:45:40;;;;;;;;;5.00;5.00;;;;;;;;5004022;28;11589;-88
2021/01/23 04:48:07;;;;;;;;;4.00;4.00;;;;;;;;5002533;28;11653;-88
2021/01/23 04:50:35;;;;;;;;;8.25;7.25;;;;;;;;4993651;28;11584;-89
2021/01/23 04:53:02;;;;;;;;;11.50;9.25;;;;;;;;4998305;28;11599;-86
2021/01/23 04:55:29;;;;;;;;;5.00;4.00;;;;;;;;5005370;28;11599;-87
2021/01/23 04:57:56;;;;;;;;;6.50;6.50;;;;;;;;5008072;28;11595;-88
2021/01/23 05:00:23;;;;;;;;;4.25;4.25;;;;;;;;5002172;28;11607;-85
2021/01/23 05:02:59;;;;;;;;;5.00;2.50;;;;;;;;5002781;28;11599;-85
2021/01/23 05:05:26;;;;;;;;;5.00;5.00;;;;;;;;5001835;28;11657;-85
2021/01/23 05:07:54;;;;;;;;;5.00;5.00;;;;;;;;5002498;28;11585;-86
2021/01/23 05:10:23;;;;;;;;;9.25;7.75;;;;;;;;5002231;28;11608;-85
2021/01/23 05:12:53;;;;;;;;;6.50;6.50;;;;;;;;4967809;28;11628;-85
2021/01/23 05:15:24;;;;;;;;;8.75;5.50;;;;;;;;4995311;28;11628;-85
2021/01/23 05:17:53;;;;;;;;;8.25;7.00;;;;;;;;4975519;28;11595;-82
2021/01/23 05:20:37;;;;;;;;;12.50;10.50;;;;;;;;5002753;28;11623;-85
2021/01/23 05:23:07;;;;;;;;;12.00;10.50;;;;;;;;5000669;28;11663;-83
2021/01/23 05:25:34;;;;;;;;;15.50;12.00;;;;;;;;5003762;28;11635;-85
2021/01/23 05:28:02;;;;;;;;;16.75;14.25;;;;;;;;5005278;28;11649;-85
2021/01/23 05:30:44;;;;;;;;;15.00;15.00;;;;;;;;4999464;28;11561;-86
2021/01/23 05:33:13;;;;;;;;;16.50;14.50;;;;;;;;5001077;28;11626;-86
2021/01/23 05:35:41;;;;;;;;;17.25;16.50;;;;;;;;5006913;28;11634;-84
2021/01/23 05:38:24;;;;;;;;;14.50;14.50;;;;;;;;5004667;28;11698;-85
2021/01/23 05:40:55;;;;;;;;;22.00;18.25;;;;;;;;5001106;28;11767;-82
2021/01/23 05:43:41;;;;;;;;;22.25;15.25;;;;;;;;5007809;28;11696;-83
2021/01/23 05:46:09;;;;;;;;;21.00;19.00;;;;;;;;5015348;28;11638;-81
2021/01/23 05:48:37;;;;;;;;;24.00;22.25;;;;;;;;5005722;28;11774;-82
2021/01/23 05:51:04;;;;;;;;;32.25;23.75;;;;;;;;5014236;28;11643;-82
2021/01/23 05:53:32;;;;;;;;;59.67;48.00;;;;;;;;5002126;28;11668;-81
2021/01/23 05:56:00;;;;;;;;;34.00;34.00;;;;;;;;5006142;28;12407;-79
2021/01/23 05:58:27;;;;;;;;;26.00;22.50;;;;;;;;5004419;28;11655;-82
2021/01/23 06:00:56;;;;;;;;;26.25;25.00;;;;;;;;5004615;28;11611;-79
2021/01/23 06:03:23;;;;;;;;;29.75;26.25;;;;;;;;5000983;28;11653;-80
2021/01/23 06:05:54;;;;;;;;;33.50;25.25;;;;;;;;5006761;28;11674;-78
2021/01/23 06:08:38;;;;;;;;;28.25;24.00;;;;;;;;5005110;28;11681;-80
2021/01/23 06:11:05;;;;;;;;;31.00;27.75;;;;;;;;5004302;28;11652;-80
2021/01/23 06:13:36;;;;;;;;;26.00;21.00;;;;;;;;5005815;28;11621;-80
2021/01/23 06:16:05;;;;;;;;;35.00;24.75;;;;;;;;5005386;28;11636;-80
2021/01/23 06:18:32;;;;;;;;;23.00;22.25;;;;;;;;5006290;28;12404;-79
2021/01/23 06:21:00;;;;;;;;;24.25;24.25;;;;;;;;5004712;28;11725;-81
2021/01/23 06:23:49;;;;;;;;;26.75;21.25;;;;;;;;4987425;28;11665;-79
2021/01/23 06:26:17;;;;;;;;;27.00;20.50;;;;;;;;4992640;28;11632;-80
2021/01/23 06:28:56;;;;;;;;;24.25;24.25;;;;;;;;5003279;28;11656;-81
2021/01/23 06:31:38;;;;;;;;;35.50;23.75;;;;;;;;5003179;28;11588;-80
2021/01/23 06:34:27;;;;;;;;;19.50;16.75;;;;;;;;5004238;28;11760;-81
2021/01/23 06:37:21;;;;;;;;;30.00;26.50;;;;;;;;5006132;28;11649;-80
2021/01/23 06:40:14;;;;;;;;;29.00;22.75;;;;;;;;5006078;28;11642;-80
2021/01/23 06:42:44;;;;;;;;;26.00;24.75;;;;;;;;5008067;28;11633;-80
2021/01/23 06:45:25;;;;;;;;;31.25;23.75;;;;;;;;5005060;28;12417;-80
2021/01/23 06:47:54;;;;;;;;;17.25;17.25;;;;;;;;4996035;28;11641;-77
2021/01/23 06:50:36;;;;;;;;;23.75;22.00;;;;;;;;5003393;28;12471;-76
2021/01/23 06:53:04;;;;;;;;;23.50;22.50;;;;;;;;5002264;28;11636;-78
2021/01/23 06:55:58;;;;;;;;;22.75;20.50;;;;;;;;5003913;28;11697;-77
2021/01/23 06:58:27;;;;;;;;;28.75;24.25;;;;;;;;4965321;28;11651;-78
2021/01/23 07:00:55;;;;;;;;;21.50;19.00;;;;;;;;5005101;28;11613;-76
2021/01/23 07:03:22;;;;;;;;;20.25;18.00;;;;;;;;4986381;28;11647;-74
2021/01/23 07:05:54;;;;;;;;;20.00;17.00;;;;;;;;5000701;28;11701;-76
2021/01/23 07:08:26;;;;;;;;;21.00;18.75;;;;;;;;4999014;28;12497;-76
2021/01/23 07:11:10;;;;;;;;;25.25;18.75;;;;;;;;5003630;28;11643;-76
2021/01/23 07:13:40;;;;;;;;;25.25;19.50;;;;;;;;4984490;28;11632;-77
2021/01/23 07:16:07;;;;;;;;;13.00;13.00;;;;;;;;5002764;28;12424;-77
2021/01/23 07:18:34;;;;;;;;;14.25;12.00;;;;;;;;5005003;28;11637;-77
2021/01/23 07:21:02;;;;;;;;;16.75;15.75;;;;;;;;4986939;28;11630;-77
2021/01/23 07:23:31;;;;;;;;;11.50;10.50;;;;;;;;5004443;28;11707;-71
2021/01/23 07:26:01;;;;;;;;;15.00;11.00;;;;;;;;4986498;28;11917;-72
2021/01/23 07:28:29;;;;;;;;;17.25;14.25;;;;;;;;5000404;28;11672;-74
2021/01/23 07:30:57;;;;;;;;;12.00;11.25;;;;;;;;5003105;28;11601;-71
2021/01/23 07:33:31;;;;;;;;;7.50;7.50;;;;;;;;5004004;28;11634;-70
2021/01/23 07:35:57;;;;;;;;;14.00;14.00;;;;;;;;5004894;28;11604;-71
2021/01/23 07:38:26;;;;;;;;;11.75;10.75;;;;;;;;4998484;28;11638;-71
2021/01/23 07:40:55;;;;;;;;;16.75;14.50;;;;;;;;4986974;28;11595;-73
2021/01/23 07:43:22;;;;;;;;;12.00;12.00;;;;;;;;5001431;28;11624;-71
2021/01/23 07:45:52;;;;;;;;;11.25;8.00;;;;;;;;5003812;28;11692;-74
2021/01/23 07:48:19;;;;;;;;;14.50;11.00;;;;;;;;4998057;28;11594;-73
2021/01/23 07:50:46;;;;;;;;;12.75;7.75;;;;;;;;5002766;28;11605;-71
2021/01/23 07:53:15;;;;;;;;;13.00;8.50;;;;;;;;5001195;28;11711;-69
2021/01/23 07:55:42;;;;;;;;;15.00;10.25;;;;;;;;5001145;28;12497;-70
2021/01/23 07:58:09;;;;;;;;;16.00;10.75;;;;;;;;4991660;28;11598;-70
2021/01/23 08:00:36;;;;;;;;;10.50;10.50;;;;;;;;4993036;28;11598;-71
2021/01/23 08:03:04;;;;;;;;;11.00;11.00;;;;;;;;4993886;28;11644;-71
2021/01/23 08:05:49;;;;;;;;;7.00;3.00;;;;;;;;4999517;28;11608;-69
2021/01/23 08:08:30;;;;;;;;;12.00;8.50;;;;;;;;4999472;28;11692;-69
2021/01/23 08:10:57;;;;;;;;;14.00;11.00;;;;;;;;4991040;28;11621;-70
2021/01/23 08:13:26;;;;;;;;;12.00;10.75;;;;;;;;4993391;28;11602;-68
2021/01/23 08:15:53;;;;;;;;;14.50;10.25;;;;;;;;4993126;28;11624;-67
2021/01/23 08:18:24;;;;;;;;;13.25;11.00;;;;;;;;4995789;28;11642;-69
2021/01/23 08:20:54;;;;;;;;;8.50;8.50;;;;;;;;5000481;28;11602;-71
2021/01/23 08:23:24;;;;;;;;;9.00;9.00;;;;;;;;4994307;28;11685;-68
2021/01/23 08:25:52;;;;;;;;;15.00;12.00;;;;;;;;4995311;28;11618;-68
2021/01/23 08:28:35;;;;;;;;;8.75;6.00;;;;;;;;4984212;28;11630;-69
2021/01/23 08:31:11;;;;;;;;;8.25;8.25;;;;;;;;4984612;28;11537;-68
2021/01/23 08:33:38;;;;;;;;;15.75;15.75;;;;;;;;4988554;28;11610;-69
2021/01/23 08:36:07;;;;;;;;;11.50;11.50;;;;;;;;4993822;28;11671;-68
2021/01/23 08:38:34;;;;;;;;;8.75;8.75;;;;;;;;4998146;28;11626;-69
2021/01/23 08:41:01;;;;;;;;;8.50;8.50;;;;;;;;4996342;28;11604;-69
2021/01/23 08:43:29;;;;;;;;;8.25;5.75;;;;;;;;4999035;28;11649;-68
2021/01/23 08:45:56;;;;;;;;;9.00;7.00;;;;;;;;4994209;28;11583;-66
2021/01/23 08:48:23;;;;;;;;;7.50;7.50;;;;;;;;4999106;28;11704;-65
2021/01/23 08:50:52;;;;;;;;;9.00;9.00;;;;;;;;4984833;28;12742;-69
2021/01/23 08:53:20;;;;;;;;;11.50;8.00;;;;;;;;4985858;28;11627;-69
2021/01/23 08:55:47;;;;;;;;;11.75;8.75;;;;;;;;4985496;28;11583;-68
2021/01/23 08:58:14;;;;;;;;;15.00;10.50;;;;;;;;4998414;28;11592;-70
2021/01/23 09:00:41;;;;;;;;;7.50;7.50;;;;;;;;4993195;28;11625;-71
2021/01/23 09:03:08;;;;;;;;;12.25;10.00;;;;;;;;4987092;28;11559;-70
2021/01/23 09:05:35;;;;;;;;;10.75;9.00;;;;;;;;4994663;28;11600;-70
2021/01/23 09:08:02;;;;;;;;;12.00;12.00;;;;;;;;4993225;28;11894;-70
2021/01/23 09:10:30;;;;;;;;;9.75;6.25;;;;;;;;4989681;28;11628;-70
2021/01/23 09:12:57;;;;;;;;;12.00;7.50;;;;;;;;4982947;28;12437;-71
2021/01/23 09:15:24;;;;;;;;;11.25;9.00;;;;;;;;4981719;28;12530;-70
2021/01/23 09:17:51;;;;;;;;;16.25;11.50;;;;;;;;4989422;28;11619;-70
2021/01/23 09:20:18;;;;;;;;;6.50;4.75;;;;;;;;4990030;28;11573;-69
2021/01/23 09:22:45;;;;;;;;;7.25;5.00;;;;;;;;4995643;28;11735;-70
2021/01/23 09:25:12;;;;;;;;;8.00;8.00;;;;;;;;5000459;28;11734;-70
2021/01/23 09:27:40;;;;;;;;;12.00;8.00;;;;;;;;4994233;28;11609;-70
2021/01/23 09:30:08;;;;;;;;;7.75;7.50;;;;;;;;4998359;28;11607;-69
2021/01/23 09:32:35;;;;;;;;;4.25;4.25;;;;;;;;4983823;28;11591;-68
2021/01/23 09:35:02;;;;;;;;;8.25;7.00;;;;;;;;4990648;28;11620;-69
2021/01/23 09:37:30;;;;;;;;;5.25;5.25;;;;;;;;4986320;28;11621;-70
2021/01/23 09:39:57;;;;;;;;;5.50;5.00;;;;;;;;4986755;28;11601;-68
2021/01/23 09:42:23;;;;;;;;;12.25;8.00;;;;;;;;4992036;28;11595;-68
2021/01/23 09:44:51;;;;;;;;;8.50;6.00;;;;;;;;4983447;28;11617;-70
2021/01/23 09:47:18;;;;;;;;;5.00;5.00;;;;;;;;4997575;28;11601;-71
2021/01/23 09:49:45;;;;;;;;;4.75;4.75;;;;;;;;4985520;28;11623;-70
2021/01/23 09:55:34;;;;;;;;;4.75;3.50;;;;;;;;4988464;28;11567;-71
2021/01/23 09:58:01;;;;;;;;;4.00;4.00;;;;;;;;4989343;28;11603;-72
2021/01/23 10:00:29;;;;;;;;;4.75;2.25;;;;;;;;4991517;28;11561;-72
2021/01/23 10:02:56;;;;;;;;;13.00;8.00;;;;;;;;4981190;28;11577;-71
2021/01/23 10:05:22;;;;;;;;;4.00;4.00;;;;;;;;4991719;28;11655;-73
2021/01/23 10:07:50;;;;;;;;;4.75;2.50;;;;;;;;4988365;28;11595;-72
2021/01/23 10:10:18;;;;;;;;;4.25;0.50;;;;;;;;4995955;28;12444;-72
2021/01/23 10:12:44;;;;;;;;;4.00;1.50;;;;;;;;4988661;28;11583;-72
2021/01/23 10:15:11;;;;;;;;;2.50;2.50;;;;;;;;4989388;28;11607;-72
2021/01/23 10:17:39;;;;;;;;;1.00;1.00;;;;;;;;4996886;28;11608;-71
2021/01/23 10:20:07;;;;;;;;;4.00;1.00;;;;;;;;4999649;28;12412;-72
2021/01/23 10:22:34;;;;;;;;;3.50;3.50;;;;;;;;5003359;28;11617;-72
2021/01/23 10:25:01;;;;;;;;;3.25;1.50;;;;;;;;5004679;28;11644;-71
2021/01/23 10:27:28;;;;;;;;;2.00;2.00;;;;;;;;5005552;28;11647;-70
2021/01/23 10:29:55;;;;;;;;;4.00;2.00;;;;;;;;4983182;28;11580;-71
2021/01/23 10:32:22;;;;;;;;;7.00;3.00;;;;;;;;5003055;28;11569;-72
2021/01/23 10:34:50;;;;;;;;;4.00;4.00;;;;;;;;5006775;28;11586;-71
2021/01/23 10:37:18;;;;;;;;;7.00;5.00;;;;;;;;5004901;28;12295;-71
2021/01/23 10:39:45;;;;;;;;;4.00;4.00;;;;;;;;5004599;28;11744;-70
2021/01/23 10:42:11;;;;;;;;;7.00;7.00;;;;;;;;5003719;28;11621;-71
2021/01/23 10:44:39;;;;;;;;;2.00;2.00;;;;;;;;4998524;28;11701;-70
2021/01/23 10:47:07;;;;;;;;;2.00;2.00;;;;;;;;4993666;28;12480;-70
2021/01/23 10:49:34;;;;;;;;;8.00;5.50;;;;;;;;4989982;28;11615;-71
2021/01/23 10:52:02;;;;;;;;;2.00;0.00;;;;;;;;5002688;28;11685;-70
2021/01/23 10:54:28;;;;;;;;;3.50;1.00;;;;;;;;4994968;28;12376;-70
2021/01/23 10:56:56;;;;;;;;;2.00;2.00;;;;;;;;5006488;28;11741;-71
2021/01/23 10:59:22;;;;;;;;;1.00;1.00;;;;;;;;4986608;28;11610;-71
2021/01/23 11:01:49;;;;;;;;;6.25;2.00;;;;;;;;5004280;28;11557;-71
2021/01/23 11:04:16;;;;;;;;;4.50;2.00;;;;;;;;4996054;28;11598;-70
2021/01/23 11:06:43;;;;;;;;;2.00;2.00;;;;;;;;5003321;28;11637;-71
2021/01/23 11:09:11;;;;;;;;;3.50;3.00;;;;;;;;5003739;28;11687;-71
2021/01/23 11:11:38;;;;;;;;;7.50;3.50;;;;;;;;4995304;28;11673;-70
2021/01/23 11:14:05;;;;;;;;;1.00;1.00;;;;;;;;4990389;28;11576;-70
2021/01/23 11:16:32;;;;;;;;;4.00;4.00;;;;;;;;5001132;28;11582;-71
2021/01/23 11:19:00;;;;;;;;;5.25;4.25;;;;;;;;4997084;28;11597;-71
2021/01/23 11:21:26;;;;;;;;;0.00;0.00;;;;;;;;5004455;28;11610;-71
2021/01/23 11:23:53;;;;;;;;;2.00;2.00;;;;;;;;5004495;28;11612;-72
2021/01/23 11:26:21;;;;;;;;;1.25;1.25;;;;;;;;4994107;28;11625;-73
2021/01/23 11:28:48;;;;;;;;;2.00;0.75;;;;;;;;5002582;28;11589;-72
2021/01/23 11:31:15;;;;;;;;;1.00;1.00;;;;;;;;5003524;28;11534;-72
2021/01/23 11:33:42;;;;;;;;;5.00;1.00;;;;;;;;5003518;28;11580;-73
2021/01/23 11:36:09;;;;;;;;;1.00;1.00;;;;;;;;5008633;28;11577;-73
2021/01/23 11:38:36;;;;;;;;;3.50;3.50;;;;;;;;5004732;28;13090;-72
2021/01/23 11:41:02;;;;;;;;;1.50;1.50;;;;;;;;5004223;28;12922;-72
2021/01/23 11:43:30;;;;;;;;;2.00;2.00;;;;;;;;4995350;28;11594;-71
2021/01/23 11:45:56;;;;;;;;;16.50;16.50;;;;;;;;5003607;28;12383;-73
2021/01/23 11:48:23;;;;;;;;;2.50;2.00;;;;;;;;5003747;28;11662;-71
2021/01/23 11:50:50;;;;;;;;;3.50;1.75;;;;;;;;5003636;28;11607;-72
2021/01/23 11:53:17;;;;;;;;;1.00;1.00;;;;;;;;5003860;28;11654;-72
2021/01/23 11:55:45;;;;;;;;;1.00;1.00;;;;;;;;4999259;28;11584;-71
2021/01/23 11:58:12;;;;;;;;;3.50;1.00;;;;;;;;5003709;28;11553;-72
2021/01/23 12:00:40;;;;;;;;;0.00;0.00;;;;;;;;5000384;28;11537;-72
2021/01/23 12:03:07;;;;;;;;;2.00;2.00;;;;;;;;4985239;28;11605;-71
2021/01/23 12:05:34;;;;;;;;;1.75;1.75;;;;;;;;5003469;28;11603;-73
2021/01/23 12:08:01;;;;;;;;;1.00;1.00;;;;;;;;5008764;28;11597;-74
2021/01/23 12:10:28;;;;;;;;;4.25;4.25;;;;;;;;5006760;28;11552;-73
2021/01/23 12:12:56;;;;;;;;;5.50;4.25;;;;;;;;5002846;28;11848;-73
2021/01/23 12:15:23;;;;;;;;;4.00;4.00;;;;;;;;5013990;28;11659;-73
2021/01/23 12:17:53;;;;;;;;;4.00;4.00;;;;;;;;5018939;28;11590;-73
2021/01/23 12:20:21;;;;;;;;;1.25;1.25;;;;;;;;5005608;28;11583;-72
2021/01/23 12:22:48;;;;;;;;;3.50;3.50;;;;;;;;5008240;28;11623;-73
2021/01/23 12:25:15;;;;;;;;;4.50;4.50;;;;;;;;5006117;28;11621;-73
2021/01/23 12:27:42;;;;;;;;;5.75;5.75;;;;;;;;5003994;28;11612;-70
2021/01/23 12:30:11;;;;;;;;;6.00;6.00;;;;;;;;5000071;28;11587;-71
2021/01/23 12:32:39;;;;;;;;;5.75;5.75;;;;;;;;4987016;28;12531;-70
2021/01/23 12:35:09;;;;;;;;;5.00;5.00;;;;;;;;4996493;28;11655;-71
2021/01/23 12:37:37;;;;;;;;;4.00;4.00;;;;;;;;5001887;28;11698;-71
2021/01/23 12:40:06;;;;;;;;;4.50;4.50;;;;;;;;5000488;28;12725;-72
2021/01/23 12:42:33;;;;;;;;;2.00;2.00;;;;;;;;4997665;28;11598;-70
2021/01/23 12:45:00;;;;;;;;;1.75;0.50;;;;;;;;5000804;28;11636;-71
2021/01/23 12:47:27;;;;;;;;;4.00;4.00;;;;;;;;4982070;28;11610;-71
2021/01/23 12:49:54;;;;;;;;;3.50;3.50;;;;;;;;5004168;28;11636;-70
2021/01/23 12:52:21;;;;;;;;;3.50;2.00;;;;;;;;5000248;28;11738;-71
2021/01/23 12:54:48;;;;;;;;;0.75;0.75;;;;;;;;5002131;28;11577;-71
2021/01/23 12:57:15;;;;;;;;;2.00;2.00;;;;;;;;5001266;28;11568;-73
2021/01/23 12:59:42;;;;;;;;;1.75;1.75;;;;;;;;5000192;28;11568;-72
2021/01/23 13:02:09;;;;;;;;;4.00;4.00;;;;;;;;5003547;28;11459;-71
2021/01/23 13:04:35;;;;;;;;;6.00;4.00;;;;;;;;5001660;28;11628;-72
2021/01/23 13:07:03;;;;;;;;;6.75;6.75;;;;;;;;4998614;28;11666;-72
2021/01/23 13:09:30;;;;;;;;;5.25;5.25;;;;;;;;5005934;28;11625;-72
2021/01/23 13:11:57;;;;;;;;;0.00;0.00;;;;;;;;5003179;28;11550;-71
2021/01/23 13:14:24;;;;;;;;;4.00;1.25;;;;;;;;5004468;28;11563;-72
2021/01/23 13:16:51;;;;;;;;;4.75;4.75;;;;;;;;5003630;28;11530;-72
2021/01/23 13:19:17;;;;;;;;;2.00;2.00;;;;;;;;5007102;28;11604;-72
2021/01/23 13:21:44;;;;;;;;;2.00;2.00;;;;;;;;5002297;28;11733;-72
2021/01/23 13:24:11;;;;;;;;;2.00;2.00;;;;;;;;5003436;28;11521;-72
2021/01/23 13:26:39;;;;;;;;;2.50;2.50;;;;;;;;5001667;28;11625;-72
2021/01/23 13:29:06;;;;;;;;;5.00;5.00;;;;;;;;5003689;28;11565;-72
2021/01/23 13:31:33;;;;;;;;;22.00;17.00;;;;;;;;5001406;28;12418;-71
2021/01/23 13:34:00;;;;;;;;;4.50;4.00;;;;;;;;5004315;28;11648;-72
2021/01/23 13:36:27;;;;;;;;;3.00;1.00;;;;;;;;5002389;28;11550;-73
2021/01/23 13:38:54;;;;;;;;;1.00;1.00;;;;;;;;5009829;28;11552;-73
2021/01/23 13:41:20;;;;;;;;;1.00;1.00;;;;;;;;5002072;28;11534;-72
2021/01/23 13:43:48;;;;;;;;;1.00;1.00;;;;;;;;5000204;28;11495;-73
2021/01/23 13:46:15;;;;;;;;;0.50;0.50;;;;;;;;5010501;28;11513;-73
2021/01/23 13:48:41;;;;;;;;;1.00;1.00;;;;;;;;5000291;28;11581;-72
2021/01/23 13:51:08;;;;;;;;;3.25;2.00;;;;;;;;5001086;28;12266;-72
2021/01/23 13:53:35;;;;;;;;;3.25;3.25;;;;;;;;5000021;28;11517;-72
2021/01/23 13:56:02;;;;;;;;;1.50;1.50;;;;;;;;5013148;28;11600;-72
2021/01/23 13:58:29;;;;;;;;;2.75;2.00;;;;;;;;5005157;28;11513;-72
2021/01/23 14:00:56;;;;;;;;;4.00;4.00;;;;;;;;5003832;28;11611;-73
2021/01/23 14:03:23;;;;;;;;;3.75;3.75;;;;;;;;5000651;28;11503;-72
2021/01/23 14:05:49;;;;;;;;;5.00;2.00;;;;;;;;5003797;28;11553;-72
2021/01/23 14:08:16;;;;;;;;;4.50;4.50;;;;;;;;5005226;28;12334;-72
2021/01/23 14:10:43;;;;;;;;;5.00;5.00;;;;;;;;4991279;28;11554;-72
2021/01/23 14:13:10;;;;;;;;;5.00;4.00;;;;;;;;5004382;28;11537;-71
2021/01/23 14:15:37;;;;;;;;;10.00;8.00;;;;;;;;5005831;28;11563;-72
2021/01/23 14:18:05;;;;;;;;;5.00;5.00;;;;;;;;5015633;28;11657;-72
2021/01/23 14:20:32;;;;;;;;;8.50;6.00;;;;;;;;5015901;28;11541;-72
2021/01/23 14:22:59;;;;;;;;;5.00;5.00;;;;;;;;5004601;28;12407;-73
2021/01/23 14:25:27;;;;;;;;;2.00;2.00;;;;;;;;5013572;28;12341;-72
2021/01/23 14:27:54;;;;;;;;;2.50;1.00;;;;;;;;5014586;28;11647;-71
2021/01/23 14:30:21;;;;;;;;;5.00;5.00;;;;;;;;5011074;28;11536;-72
2021/01/23 14:32:48;;;;;;;;;4.00;4.00;;;;;;;;5010210;28;11609;-71
2021/01/23 14:35:16;;;;;;;;;3.00;1.00;;;;;;;;5006211;28;11587;-71
2021/01/23 14:37:43;;;;;;;;;5.50;2.00;;;;;;;;5009378;28;11509;-71
2021/01/23 14:40:12;;;;;;;;;1.00;1.00;;;;;;;;4986088;28;11619;-71
2021/01/23 14:42:40;;;;;;;;;0.75;0.75;;;;;;;;5006432;28;11628;-71
2021/01/23 14:45:08;;;;;;;;;0.00;0.00;;;;;;;;5004851;28;11581;-71
2021/01/23 14:47:35;;;;;;;;;0.00;0.00;;;;;;;;5005042;28;11565;-70
2021/01/23 14:50:02;;;;;;;;;2.00;2.00;;;;;;;;5018274;28;11571;-71
2021/01/23 14:52:30;;;;;;;;;1.50;1.50;;;;;;;;5015076;28;12030;-70